Time;durP1;ratioP1;P1;durP2;ratioP2;P2;SDS_P1;SDS_P2;PMS_P1;PMS_P2;Temp;Humidity;BMP_temperature;BMP_pressure;BME280_temperature;BME280_humidity;BME280_pressure;Samples;Min_cycle;Max_cycle;Signal;HPM_P1;HPM_P2
2022/09/25 00:01:28;;;;;;;;;;;;;;;19.07;52.59;101507.59;5065135;28;19924;-51
2022/09/25 00:03:53;;;;;;;;;;;;;;;19.06;52.72;101502.34;5064719;28;19968;-53
2022/09/25 00:06:19;;;;;;;;;;;;;;;19.06;52.59;101513.13;5065211;28;19911;-49
2022/09/25 00:08:45;;;;;;;;;;;;;;;19.06;52.62;101507.75;5065593;28;19948;-51
2022/09/25 00:11:12;;;;;;;;;;;;;;;19.05;52.39;101506.06;5065354;28;19928;-52
2022/09/25 00:13:37;;;;;;;;;;;;;;;19.03;52.47;101514.31;5065655;28;20289;-52
2022/09/25 00:16:03;;;;;;;;;;;;;;;19.03;52.65;101519.72;5063938;28;19908;-51
2022/09/25 00:21:13;;;;;;;;;;;;;;;19.02;52.59;101519.84;5064398;28;19951;-55
2022/09/25 00:23:38;;;;;;;;;;;;;;;19.01;52.46;101521.69;5065180;28;19919;-52
2022/09/25 00:26:04;;;;;;;;;;;;;;;19.01;52.49;101526.25;5065209;28;19912;-52
2022/09/25 00:28:30;;;;;;;;;;;;;;;19.00;52.47;101522.69;5065186;28;19908;-53
2022/09/25 00:30:56;;;;;;;;;;;;;;;19.01;52.77;101528.94;5064751;28;20361;-54
2022/09/25 00:33:21;;;;;;;;;;;;;;;19.00;52.58;101529.94;5063776;28;19919;-49
2022/09/25 00:35:46;;;;;;;;;;;;;;;18.98;52.55;101527.38;5064302;28;19909;-52
2022/09/25 00:38:11;;;;;;;;;;;;;;;18.97;52.61;101537.31;5065060;28;19951;-50
2022/09/25 00:40:37;;;;;;;;;;;;;;;18.97;52.57;101533.78;5064788;28;19962;-49
2022/09/25 00:43:02;;;;;;;;;;;;;;;18.96;52.53;101530.25;5064907;28;19914;-53
2022/09/25 00:45:27;;;;;;;;;;;;;;;18.97;52.39;101528.38;5064870;28;19935;-53
2022/09/25 00:47:52;;;;;;;;;;;;;;;18.96;52.51;101541.03;5064957;28;19909;-53
2022/09/25 00:50:20;;;;;;;;;;;;;;;18.95;52.53;101538.50;5064044;28;20392;-51
2022/09/25 00:52:45;;;;;;;;;;;;;;;18.96;52.34;101540.19;5089841;28;19920;-53
2022/09/25 00:55:11;;;;;;;;;;;;;;;18.95;52.44;101542.03;5044818;28;19912;-55
2022/09/25 00:57:36;;;;;;;;;;;;;;;18.93;52.33;101538.63;5043397;28;19909;-49
2022/09/25 01:00:06;;;;;;;;;;;;;;;18.94;52.22;101539.47;5044290;28;19920;-51
2022/09/25 01:02:32;;;;;;;;;;;;;;;18.92;52.26;101539.63;5050939;28;19920;-52
2022/09/25 01:04:59;;;;;;;;;;;;;;;18.92;52.30;101538.78;5071892;28;19909;-50
2022/09/25 01:07:24;;;;;;;;;;;;;;;18.92;52.25;101533.41;5063993;28;19995;-52
2022/09/25 01:09:49;;;;;;;;;;;;;;;18.91;52.10;101540.63;5064259;28;19908;-52
2022/09/25 01:12:14;;;;;;;;;;;;;;;18.91;52.25;101546.03;5064328;28;19904;-52
2022/09/25 01:14:40;;;;;;;;;;;;;;;18.90;52.34;101535.38;5064342;28;19951;-54
2022/09/25 01:17:08;;;;;;;;;;;;;;;18.90;52.43;101543.47;5064205;28;19947;-50
2022/09/25 01:19:47;;;;;;;;;;;;;;;18.89;52.25;101536.38;5063513;28;20058;-53
2022/09/25 01:22:31;;;;;;;;;;;;;;;18.88;52.29;101538.25;5062030;28;19912;-51
2022/09/25 01:25:08;;;;;;;;;;;;;;;18.87;52.37;101531.16;5064200;28;19943;-54
2022/09/25 01:27:52;;;;;;;;;;;;;;;18.87;52.38;101528.47;5062946;28;19915;-51
2022/09/25 01:30:18;;;;;;;;;;;;;;;18.86;52.33;101529.47;5063662;28;19909;-52
2022/09/25 01:32:50;;;;;;;;;;;;;;;18.86;52.43;101525.91;5062256;28;20011;-52
2022/09/25 01:35:32;;;;;;;;;;;;;;;18.85;52.34;101524.22;5063381;28;19950;-55
2022/09/25 01:38:01;;;;;;;;;;;;;;;18.84;52.19;101523.38;5075774;28;20358;-54
2022/09/25 01:40:32;;;;;;;;;;;;;;;18.83;52.20;101521.69;5075697;28;19976;-53
2022/09/25 01:43:06;;;;;;;;;;;;;;;18.83;52.39;101516.31;5076083;28;20049;-54
2022/09/25 01:45:41;;;;;;;;;;;;;;;18.83;52.34;101518.16;5075549;28;19916;-53
2022/09/25 01:48:07;;;;;;;;;;;;;;;18.82;52.29;101520.00;5043950;28;19915;-51
2022/09/25 01:50:41;;;;;;;;;;;;;;;18.82;52.41;101522.69;5074817;28;19933;-52
2022/09/25 01:53:06;;;;;;;;;;;;;;;18.81;52.32;101523.69;5052625;28;19920;-52
2022/09/25 01:55:37;;;;;;;;;;;;;;;18.81;52.24;101522.84;5063068;28;19948;-53
2022/09/25 01:58:19;;;;;;;;;;;;;;;18.80;52.07;101527.38;5095662;28;19921;-48
2022/09/25 02:00:49;;;;;;;;;;;;;;;18.79;52.37;101531.09;5095213;28;19912;-51
2022/09/25 02:03:21;;;;;;;;;;;;;;;18.80;52.41;101540.00;5095326;28;19948;-53
2022/09/25 02:05:51;;;;;;;;;;;;;;;18.79;52.02;101530.25;5094774;28;19916;-49
2022/09/25 02:08:21;;;;;;;;;;;;;;;18.78;52.31;101520.47;5095901;28;19908;-50
2022/09/25 02:10:54;;;;;;;;;;;;;;;18.78;52.19;101526.69;5095338;28;20372;-52
2022/09/25 02:13:19;;;;;;;;;;;;;;;18.78;52.30;101517.78;5063742;28;19944;-52
2022/09/25 02:15:47;;;;;;;;;;;;;;;18.76;52.23;101517.06;5061843;28;19909;-52
2022/09/25 02:21:16;;;;;;;;;;;;;;;18.76;52.30;101517.91;5061094;28;19920;-50
2022/09/25 02:23:44;;;;;;;;;;;;;;;18.75;52.41;101510.84;5028694;28;19975;-51
2022/09/25 02:26:15;;;;;;;;;;;;;;;18.75;52.28;101518.06;5043233;28;20321;-47
2022/09/25 02:28:41;;;;;;;;;;;;;;;18.74;52.27;101517.22;5043141;28;19920;-52
2022/09/25 02:31:07;;;;;;;;;;;;;;;18.73;52.07;101510.13;5074733;28;19913;-52
2022/09/25 02:33:32;;;;;;;;;;;;;;;18.73;52.09;101519.09;5075193;28;19909;-52
2022/09/25 02:35:57;;;;;;;;;;;;;;;18.72;52.22;101508.44;5042263;28;19966;-52
2022/09/25 02:38:23;;;;;;;;;;;;;;;18.72;52.28;101509.28;5108788;28;19935;-55
2022/09/25 02:40:55;;;;;;;;;;;;;;;18.70;52.28;101511.28;5082748;28;19912;-50
2022/09/25 02:43:23;;;;;;;;;;;;;;;18.70;52.29;101510.44;5081965;28;19912;-49
2022/09/25 02:45:53;;;;;;;;;;;;;;;18.70;52.25;101513.16;5083012;28;20041;-51
2022/09/25 02:48:37;;;;;;;;;;;;;;;18.69;52.10;101512.31;5081651;28;19912;-52
2022/09/25 02:51:05;;;;;;;;;;;;;;;18.67;52.38;101506.19;5081910;28;19960;-50
2022/09/25 02:53:40;;;;;;;;;;;;;;;18.68;51.86;101510.56;5067681;28;19919;-48
2022/09/25 02:56:11;;;;;;;;;;;;;;;18.68;52.16;101512.41;5063030;28;20341;-52
2022/09/25 02:58:50;;;;;;;;;;;;;;;18.67;52.17;101511.56;5099212;28;20379;-52
2022/09/25 03:01:15;;;;;;;;;;;;;;;18.66;52.38;101515.25;5066548;28;19938;-50
2022/09/25 03:03:41;;;;;;;;;;;;;;;18.66;52.25;101509.03;5093600;28;19935;-52
2022/09/25 03:06:06;;;;;;;;;;;;;;;18.66;52.16;101519.81;5045008;28;19913;-50
2022/09/25 03:08:37;;;;;;;;;;;;;;;18.65;52.19;101520.81;5045605;28;20480;-52
2022/09/25 03:11:09;;;;;;;;;;;;;;;18.65;52.18;101523.50;5058537;28;19912;-53
2022/09/25 03:13:35;;;;;;;;;;;;;;;18.65;51.98;101518.13;5066967;28;19944;-52
2022/09/25 03:16:02;;;;;;;;;;;;;;;18.63;52.03;101518.25;5066845;28;19912;-55
2022/09/25 03:18:27;;;;;;;;;;;;;;;18.64;52.09;101521.78;5065300;28;20613;-52
2022/09/25 03:20:53;;;;;;;;;;;;;;;18.63;52.12;101525.47;5065458;28;19919;-55
2022/09/25 03:23:18;;;;;;;;;;;;;;;18.62;51.80;101524.66;5066423;28;19919;-54
2022/09/25 03:25:43;;;;;;;;;;;;;;;18.62;52.10;101518.41;5066552;28;19909;-49
2022/09/25 03:28:09;;;;;;;;;;;;;;;18.60;51.95;101513.16;5066650;28;19909;-54
2022/09/25 03:30:37;;;;;;;;;;;;;;;18.60;51.77;101510.47;5066109;28;19908;-55
2022/09/25 03:33:02;;;;;;;;;;;;;;;18.59;52.01;101508.78;5066400;28;19917;-52
2022/09/25 03:35:27;;;;;;;;;;;;;;;18.60;51.90;101509.63;5064874;28;19974;-53
2022/09/25 03:37:52;;;;;;;;;;;;;;;18.59;51.89;101507.94;5078434;28;19908;-52
2022/09/25 03:40:17;;;;;;;;;;;;;;;18.59;51.97;101508.78;5086015;28;19935;-53
2022/09/25 03:42:43;;;;;;;;;;;;;;;18.58;51.96;101514.31;5086481;28;19951;-49
2022/09/25 03:45:09;;;;;;;;;;;;;;;18.57;51.99;101513.47;5086121;28;19912;-54
2022/09/25 03:47:34;;;;;;;;;;;;;;;18.57;51.94;101515.34;5086276;28;19914;-52
2022/09/25 03:49:59;;;;;;;;;;;;;;;18.56;51.79;101509.06;5085300;28;20518;-53
2022/09/25 03:52:24;;;;;;;;;;;;;;;18.55;51.80;101509.22;5077586;28;19920;-52
2022/09/25 03:54:50;;;;;;;;;;;;;;;18.56;52.07;101502.84;5065758;28;19912;-55
2022/09/25 03:57:15;;;;;;;;;;;;;;;18.54;51.92;101503.00;5064917;28;19908;-51
2022/09/25 03:59:40;;;;;;;;;;;;;;;18.54;51.78;101497.63;5065613;28;19970;-52
2022/09/25 04:02:05;;;;;;;;;;;;;;;18.54;51.62;101499.47;5065569;28;20419;-53
2022/09/25 04:04:31;;;;;;;;;;;;;;;18.54;52.05;101504.84;5065258;28;19915;-54
2022/09/25 04:06:56;;;;;;;;;;;;;;;18.53;51.69;101493.25;5065485;28;19909;-55
2022/09/25 04:09:22;;;;;;;;;;;;;;;18.52;51.97;101496.06;5065678;28;19917;-54
2022/09/25 04:11:47;;;;;;;;;;;;;;;18.51;52.01;101500.59;5065761;28;19924;-52
2022/09/25 04:14:13;;;;;;;;;;;;;;;18.51;52.09;101495.22;5065758;28;19909;-52
2022/09/25 04:16:39;;;;;;;;;;;;;;;18.50;51.78;101496.22;5065649;28;19908;-55
2022/09/25 04:19:04;;;;;;;;;;;;;;;18.40;51.75;101482.00;5064759;28;19935;-51
2022/09/25 04:21:29;;;;;;;;;;;;;;;18.50;51.76;101496.22;5064672;28;19997;-52
2022/09/25 04:26:38;;;;;;;;;;;;;;;18.48;51.81;101493.69;5065643;28;19916;-54
2022/09/25 04:29:03;;;;;;;;;;;;;;;18.48;51.83;101496.38;5065157;28;19908;-52
2022/09/25 04:31:29;;;;;;;;;;;;;;;18.48;51.72;101495.53;5064948;28;19979;-51
2022/09/25 04:33:54;;;;;;;;;;;;;;;18.46;51.91;101497.53;5065395;28;19908;-53
2022/09/25 04:36:19;;;;;;;;;;;;;;;18.46;51.98;101490.28;5064375;28;20400;-52
2022/09/25 04:38:45;;;;;;;;;;;;;;;18.46;52.00;101486.75;5084824;28;19916;-51
2022/09/25 04:41:10;;;;;;;;;;;;;;;18.45;51.66;101485.06;5083811;28;20371;-55
2022/09/25 04:43:35;;;;;;;;;;;;;;;18.44;51.52;101486.91;5085327;28;19949;-54
2022/09/25 04:46:01;;;;;;;;;;;;;;;18.44;51.66;101494.16;5085115;28;19963;-49
2022/09/25 04:48:27;;;;;;;;;;;;;;;18.44;51.91;101502.22;5075694;28;19919;-52
2022/09/25 04:50:52;;;;;;;;;;;;;;;18.42;51.55;101499.66;5063731;28;19954;-55
2022/09/25 04:53:17;;;;;;;;;;;;;;;18.43;51.72;101497.81;5065021;28;19909;-53
2022/09/25 04:55:42;;;;;;;;;;;;;;;18.43;51.49;101498.66;5064853;28;19942;-53
2022/09/25 04:58:07;;;;;;;;;;;;;;;18.42;51.61;101494.28;5064756;28;19920;-50
2022/09/25 05:00:33;;;;;;;;;;;;;;;18.43;51.60;101503.22;5063077;28;19912;-53
2022/09/25 05:02:58;;;;;;;;;;;;;;;18.42;51.38;101488.06;5064573;28;19908;-52
2022/09/25 05:05:27;;;;;;;;;;;;;;;18.42;51.43;101490.75;5064009;28;19913;-53
2022/09/25 05:07:53;;;;;;;;;;;;;;;18.41;51.33;101494.44;5054826;28;19913;-53
2022/09/25 05:10:19;;;;;;;;;;;;;;;18.41;51.41;101491.75;5050873;28;19926;-54
2022/09/25 05:12:44;;;;;;;;;;;;;;;18.40;51.34;101496.28;5065455;28;19909;-50
2022/09/25 05:15:10;;;;;;;;;;;;;;;18.40;51.38;101493.59;5065362;28;19960;-55
2022/09/25 05:17:35;;;;;;;;;;;;;;;18.40;51.26;101490.91;5064981;28;19908;-52
2022/09/25 05:20:02;;;;;;;;;;;;;;;18.39;51.33;101497.31;5063873;28;19932;-53
2022/09/25 05:22:27;;;;;;;;;;;;;;;18.37;51.25;101496.59;5064543;28;20313;-54
2022/09/25 05:24:52;;;;;;;;;;;;;;;18.36;51.33;101492.22;5064909;28;19908;-51
2022/09/25 05:27:17;;;;;;;;;;;;;;;18.36;51.05;101496.75;5064953;28;19908;-56
2022/09/25 05:29:43;;;;;;;;;;;;;;;18.12;51.30;101454.25;5064766;28;19960;-55
2022/09/25 05:32:08;;;;;;;;;;;;;;;18.33;51.13;101497.03;5064390;28;19909;-55
2022/09/25 05:34:33;;;;;;;;;;;;;;;18.31;51.28;101502.59;5064595;28;19909;-54
2022/09/25 05:36:58;;;;;;;;;;;;;;;18.31;51.40;101499.03;5069306;28;19908;-57
2022/09/25 05:39:24;;;;;;;;;;;;;;;18.30;51.20;101500.88;5084645;28;19908;-56
2022/09/25 05:41:49;;;;;;;;;;;;;;;18.30;51.17;101500.03;5084649;28;19912;-57
2022/09/25 05:44:14;;;;;;;;;;;;;;;18.29;51.26;101498.34;5084652;28;19908;-55
2022/09/25 05:46:39;;;;;;;;;;;;;;;18.29;51.30;101493.81;5084690;28;19909;-56
2022/09/25 05:49:04;;;;;;;;;;;;;;;18.28;51.57;101489.41;5067943;28;20007;-54
2022/09/25 05:51:30;;;;;;;;;;;;;;;18.28;51.54;101488.59;5062521;28;19920;-57
2022/09/25 05:53:55;;;;;;;;;;;;;;;18.28;51.64;101483.19;5064304;28;19991;-55
2022/09/25 05:56:21;;;;;;;;;;;;;;;18.28;51.67;101480.50;5062626;28;19909;-56
2022/09/25 05:58:48;;;;;;;;;;;;;;;18.28;51.49;101484.03;5063925;28;19920;-55
2022/09/25 06:01:13;;;;;;;;;;;;;;;18.28;51.66;101481.34;5063069;28;19940;-56
2022/09/25 06:03:38;;;;;;;;;;;;;;;18.28;51.64;101478.66;5087763;28;20365;-56
2022/09/25 06:06:04;;;;;;;;;;;;;;;18.28;51.73;101478.66;5063137;28;19908;-57
2022/09/25 06:08:34;;;;;;;;;;;;;;;18.28;51.78;101481.34;5064178;28;20304;-57
2022/09/25 06:11:00;;;;;;;;;;;;;;;18.29;51.92;101484.88;5063840;28;19909;-57
2022/09/25 06:13:25;;;;;;;;;;;;;;;18.28;51.59;101481.34;5063990;28;19923;-56
2022/09/25 06:15:51;;;;;;;;;;;;;;;18.30;51.72;101481.19;5063720;28;19908;-57
2022/09/25 06:18:17;;;;;;;;;;;;;;;18.30;52.04;101486.56;5062434;28;19955;-57
2022/09/25 06:20:42;;;;;;;;;;;;;;;18.30;51.79;101483.88;5063058;28;19936;-56
2022/09/25 06:23:07;;;;;;;;;;;;;;;18.31;52.11;101488.25;5062980;28;19913;-58
2022/09/25 06:25:33;;;;;;;;;;;;;;;18.31;52.07;101488.25;5063851;28;19909;-57
2022/09/25 06:27:59;;;;;;;;;;;;;;;18.31;51.84;101483.75;5063962;28;19995;-56
2022/09/25 06:30:27;;;;;;;;;;;;;;;18.33;51.70;101497.03;5062570;28;19978;-57
2022/09/25 06:33:02;;;;;;;;;;;;;;;18.33;51.78;101492.50;5063534;28;19927;-57
2022/09/25 06:35:28;;;;;;;;;;;;;;;18.35;52.12;101506.69;5062687;28;20004;-57
2022/09/25 06:37:57;;;;;;;;;;;;;;;18.35;51.94;101495.91;5063026;28;19908;-57
2022/09/25 06:40:22;;;;;;;;;;;;;;;18.36;52.04;101502.13;5062934;28;19925;-56
2022/09/25 06:42:51;;;;;;;;;;;;;;;18.36;51.80;101502.97;5063441;28;20334;-56
2022/09/25 06:45:16;;;;;;;;;;;;;;;18.38;51.90;101498.28;5060180;28;19920;-55
2022/09/25 06:47:42;;;;;;;;;;;;;;;18.38;51.85;101500.97;5063365;28;19913;-56
2022/09/25 06:50:07;;;;;;;;;;;;;;;18.40;51.74;101504.38;5061624;28;19912;-55
2022/09/25 06:52:32;;;;;;;;;;;;;;;18.41;51.74;101503.38;5061480;28;19909;-57
2022/09/25 06:54:58;;;;;;;;;;;;;;;18.42;51.71;101512.28;5063250;28;19940;-56
2022/09/25 06:57:23;;;;;;;;;;;;;;;18.42;51.89;101513.13;5062946;28;19923;-57
2022/09/25 06:59:48;;;;;;;;;;;;;;;18.43;51.93;101508.59;5062564;28;19987;-55
2022/09/25 07:04:58;;;;;;;;;;;;;;;18.43;51.94;101503.22;5053782;28;19958;-59
2022/09/25 07:07:24;;;;;;;;;;;;;;;18.43;51.92;101505.91;5061498;28;19935;-57
2022/09/25 07:09:49;;;;;;;;;;;;;;;18.43;51.92;101513.97;5062254;28;20507;-56
2022/09/25 07:12:16;;;;;;;;;;;;;;;18.42;51.97;101518.53;5062519;28;20369;-56
2022/09/25 07:14:43;;;;;;;;;;;;;;;18.43;51.81;101520.19;5061998;28;19916;-57
2022/09/25 07:17:08;;;;;;;;;;;;;;;18.46;51.85;101521.75;5062081;28;19931;-57
2022/09/25 07:19:33;;;;;;;;;;;;;;;18.47;51.58;101524.28;5060021;28;19912;-57
2022/09/25 07:21:58;;;;;;;;;;;;;;;18.47;51.91;101526.97;5061949;28;19919;-55
2022/09/25 07:24:25;;;;;;;;;;;;;;;18.50;51.89;101531.22;5062797;28;20377;-56
2022/09/25 07:26:51;;;;;;;;;;;;;;;18.51;51.75;101522.16;5062969;28;19909;-60
2022/09/25 07:29:16;;;;;;;;;;;;;;;18.50;51.98;101517.78;5063173;28;19917;-59
2022/09/25 07:31:41;;;;;;;;;;;;;;;18.52;52.00;101521.19;5063032;28;19954;-57
2022/09/25 07:34:11;;;;;;;;;;;;;;;18.50;51.85;101512.38;5063345;28;20407;-60
2022/09/25 07:36:43;;;;;;;;;;;;;;;18.51;51.92;101522.16;5063510;28;19908;-60
2022/09/25 07:39:08;;;;;;;;;;;;;;;18.51;51.89;101514.06;5083442;28;20377;-60
2022/09/25 07:41:33;;;;;;;;;;;;;;;18.52;52.12;101510.41;5080267;28;19915;-59
2022/09/25 07:43:59;;;;;;;;;;;;;;;18.54;51.96;101512.94;5065307;28;20356;-55
2022/09/25 07:46:24;;;;;;;;;;;;;;;18.55;52.00;101518.16;5064309;28;19919;-59
2022/09/25 07:48:49;;;;;;;;;;;;;;;18.57;52.12;101518.03;5058511;28;19915;-58
2022/09/25 07:51:15;;;;;;;;;;;;;;;18.61;51.77;101516.72;5055245;28;19956;-59
2022/09/25 07:53:41;;;;;;;;;;;;;;;18.61;52.01;101506.78;5065532;28;19909;-59
2022/09/25 07:56:07;;;;;;;;;;;;;;;18.64;52.21;101505.63;5064596;28;19912;-59
2022/09/25 07:58:33;;;;;;;;;;;;;;;18.63;52.12;101504.78;5061854;28;19972;-60
2022/09/25 08:00:59;;;;;;;;;;;;;;;18.39;51.90;101465.00;5060987;28;19927;-57
2022/09/25 08:03:24;;;;;;;;;;;;;;;18.65;51.92;101507.34;5058934;28;19913;-60
2022/09/25 08:06:16;;;;;;;;;;;;;;;18.64;51.80;101503.78;5064503;28;19917;-57
2022/09/25 08:08:41;;;;;;;;;;;;;;;18.65;52.08;101510.03;5059195;28;19909;-61
2022/09/25 08:11:10;;;;;;;;;;;;;;;18.66;51.96;101509.03;5065989;28;19931;-60
2022/09/25 08:13:37;;;;;;;;;;;;;;;18.68;51.90;101510.56;5066210;28;19933;-60
2022/09/25 08:16:05;;;;;;;;;;;;;;;18.70;51.95;101510.44;5066110;28;19946;-60
2022/09/25 08:18:31;;;;;;;;;;;;;;;18.75;52.11;101515.38;5066223;28;19912;-60
2022/09/25 08:21:00;;;;;;;;;;;;;;;18.79;51.91;101511.38;5064721;28;19982;-59
2022/09/25 08:23:25;;;;;;;;;;;;;;;18.84;51.93;101507.22;5066706;28;19955;-59
2022/09/25 08:25:51;;;;;;;;;;;;;;;18.87;51.70;101512.31;5066240;28;19923;-60
2022/09/25 08:28:17;;;;;;;;;;;;;;;18.89;51.53;101509.44;5066523;28;19909;-59
2022/09/25 08:30:42;;;;;;;;;;;;;;;18.89;51.68;101512.97;5050125;28;20165;-59
2022/09/25 08:33:11;;;;;;;;;;;;;;;18.89;51.59;101509.44;5046507;28;19909;-57
2022/09/25 08:35:36;;;;;;;;;;;;;;;18.89;51.32;101512.13;5063324;28;19915;-60
2022/09/25 08:38:01;;;;;;;;;;;;;;;18.87;51.28;101504.22;5065567;28;19916;-61
2022/09/25 08:40:27;;;;;;;;;;;;;;;18.88;51.38;101505.06;5098070;28;19916;-66
2022/09/25 08:42:52;;;;;;;;;;;;;;;18.87;51.67;101504.22;5048313;28;19923;-59
2022/09/25 08:51:13;;;;;;;;;;;;;;;18.92;51.48;101510.00;5081805;28;19955;-57
2022/09/25 08:53:38;;;;;;;;;;;;;;;18.94;51.61;101504.44;5065580;28;19913;-60
2022/09/25 08:56:19;;;;;;;;;;;;;;;18.98;51.34;101497.75;5064908;28;19957;-62
2022/09/25 08:58:46;;;;;;;;;;;;;;;19.01;51.55;101500.13;5093719;28;19923;-60
2022/09/25 09:01:16;;;;;;;;;;;;;;;19.03;51.54;101506.22;5063826;28;20122;-60
2022/09/25 09:03:56;;;;;;;;;;;;;;;19.06;51.25;101505.91;5065587;28;19908;-60
2022/09/25 09:06:22;;;;;;;;;;;;;;;19.09;51.36;101504.75;5063228;28;19909;-61
2022/09/25 09:08:53;;;;;;;;;;;;;;;19.11;51.49;101502.72;5065709;28;19943;-60
2022/09/25 09:11:22;;;;;;;;;;;;;;;19.12;51.15;101499.91;5063713;28;19908;-62
2022/09/25 09:13:49;;;;;;;;;;;;;;;19.15;51.09;101509.50;5097748;28;19951;-60
2022/09/25 09:16:16;;;;;;;;;;;;;;;19.15;51.15;101502.25;5064052;28;19909;-53
2022/09/25 09:18:41;;;;;;;;;;;;;;;19.16;51.19;101508.53;5061112;28;19915;-58
2022/09/25 09:21:09;;;;;;;;;;;;;;;19.16;51.33;101497.75;5063589;28;19912;-62
2022/09/25 09:23:37;;;;;;;;;;;;;;;19.18;51.06;101499.28;5064322;28;19916;-62
2022/09/25 09:26:11;;;;;;;;;;;;;;;19.20;51.30;101501.81;5064987;28;19913;-61
2022/09/25 09:29:03;;;;;;;;;;;;;;;19.21;51.31;101503.50;5064160;28;19909;-62
2022/09/25 09:31:34;;;;;;;;;;;;;;;19.21;51.15;101504.34;5062300;28;19991;-60
2022/09/25 09:34:15;;;;;;;;;;;;;;;19.23;51.11;101501.50;5065014;28;19913;-60
2022/09/25 09:36:43;;;;;;;;;;;;;;;19.23;50.95;101498.78;5059380;28;19939;-66
2022/09/25 09:39:20;;;;;;;;;;;;;;;19.25;51.09;101502.19;5063963;28;19908;-63
2022/09/25 09:41:45;;;;;;;;;;;;;;;19.26;50.89;101500.34;5064300;28;19917;-61
2022/09/25 09:44:29;;;;;;;;;;;;;;;19.26;51.03;101503.88;5064758;28;20000;-62
2022/09/25 09:47:14;;;;;;;;;;;;;;;19.27;51.12;101493.94;5064439;28;19968;-61
2022/09/25 09:49:42;;;;;;;;;;;;;;;19.26;51.20;101490.41;5063600;28;19920;-58
2022/09/25 09:52:18;;;;;;;;;;;;;;;19.25;50.94;101491.41;5061722;28;19989;-60
2022/09/25 09:54:45;;;;;;;;;;;;;;;19.25;51.13;101491.41;5096974;28;19915;-63
2022/09/25 09:57:18;;;;;;;;;;;;;;;19.26;51.17;101487.72;5095136;28;19967;-61
2022/09/25 09:59:54;;;;;;;;;;;;;;;19.27;51.09;101480.47;5059219;28;19916;-64
2022/09/25 10:02:22;;;;;;;;;;;;;;;19.30;51.18;101485.56;5063911;28;19927;-60
2022/09/25 10:04:47;;;;;;;;;;;;;;;19.31;51.23;101481.84;5063408;28;19920;-59
2022/09/25 10:07:15;;;;;;;;;;;;;;;19.32;51.80;101487.06;5069081;28;19904;-60
2022/09/25 10:09:41;;;;;;;;;;;;;;;19.35;51.92;101478.66;5063115;28;19915;-60
2022/09/25 10:12:11;;;;;;;;;;;;;;;19.38;51.85;101477.53;5064044;28;19923;-60
2022/09/25 10:14:37;;;;;;;;;;;;;;;19.39;51.54;101477.34;5062514;28;20328;-61
2022/09/25 10:17:03;;;;;;;;;;;;;;;19.40;51.75;101481.72;5105703;28;20339;-60
2022/09/25 10:19:28;;;;;;;;;;;;;;;19.40;51.47;101484.44;5083994;28;19915;-59
2022/09/25 10:22:11;;;;;;;;;;;;;;;19.40;51.68;101475.50;5062842;28;20081;-61
2022/09/25 10:24:51;;;;;;;;;;;;;;;19.40;51.74;101476.34;5042892;28;19931;-62
2022/09/25 10:27:19;;;;;;;;;;;;;;;19.40;51.81;101476.34;5064311;28;19924;-62
2022/09/25 10:29:44;;;;;;;;;;;;;;;19.41;51.84;101477.19;5064198;28;19909;-61
2022/09/25 10:32:10;;;;;;;;;;;;;;;19.43;51.77;101473.34;5063514;28;19958;-62
2022/09/25 10:34:35;;;;;;;;;;;;;;;19.44;51.63;101464.22;5063990;28;20471;-61
2022/09/25 10:37:00;;;;;;;;;;;;;;;19.47;51.85;101463.09;5062166;28;20353;-62
2022/09/25 10:39:27;;;;;;;;;;;;;;;19.50;51.76;101462.78;5062805;28;19909;-61
2022/09/25 10:41:53;;;;;;;;;;;;;;;19.49;51.65;101470.00;5061816;28;19956;-60
2022/09/25 10:44:30;;;;;;;;;;;;;;;19.48;51.71;101465.59;5062899;28;19909;-63
2022/09/25 10:52:43;;;;;;;;;;;;;;;19.47;51.86;101469.31;5043363;28;20415;-62
2022/09/25 10:55:13;;;;;;;;;;;;;;;19.48;51.74;101464.75;5043987;28;19916;-61
2022/09/25 10:57:40;;;;;;;;;;;;;;;19.48;51.63;101468.31;5043912;28;20000;-60
2022/09/25 11:00:18;;;;;;;;;;;;;;;19.49;51.56;101464.59;5075675;28;19916;-61
2022/09/25 11:02:45;;;;;;;;;;;;;;;19.49;51.62;101461.91;5043851;28;19909;-61
2022/09/25 11:05:14;;;;;;;;;;;;;;;19.51;51.69;101463.63;5061267;28;19915;-64
2022/09/25 11:07:42;;;;;;;;;;;;;;;19.52;51.95;101455.34;5061250;28;19935;-59
2022/09/25 11:10:18;;;;;;;;;;;;;;;19.54;51.79;101456.06;5062036;28;19917;-58
2022/09/25 11:12:44;;;;;;;;;;;;;;;19.56;51.84;101447.78;5092623;28;19962;-58
2022/09/25 11:15:10;;;;;;;;;;;;;;;19.59;51.79;101453.72;5063724;28;19909;-58
2022/09/25 11:17:37;;;;;;;;;;;;;;;19.63;51.76;101446.19;5110897;28;19908;-59
2022/09/25 11:20:15;;;;;;;;;;;;;;;19.68;51.65;101454.66;5068361;28;19919;-58
2022/09/25 11:22:40;;;;;;;;;;;;;;;19.72;51.32;101450.63;5064430;28;19912;-58
2022/09/25 11:25:10;;;;;;;;;;;;;;;19.75;51.16;101444.88;5066514;28;19915;-58
2022/09/25 11:27:35;;;;;;;;;;;;;;;19.81;51.31;101435.31;5049539;28;19915;-58
2022/09/25 11:30:03;;;;;;;;;;;;;;;19.85;51.34;101447.47;5067295;28;19936;-58
2022/09/25 11:32:32;;;;;;;;;;;;;;;19.91;50.92;101444.13;5066936;28;19976;-62
2022/09/25 11:35:18;;;;;;;;;;;;;;;19.94;50.91;101438.41;5059123;28;19936;-58
2022/09/25 11:38:01;;;;;;;;;;;;;;;19.98;50.93;101439.78;5044423;28;19931;-62
2022/09/25 11:43:15;;;;;;;;;;;;;;;20.09;50.85;101431.38;5047759;28;19959;-61
2022/09/25 11:45:48;;;;;;;;;;;;;;;20.12;50.85;101424.78;5084147;28;20059;-61
2022/09/25 11:48:23;;;;;;;;;;;;;;;20.14;50.76;101434.44;5065741;28;19931;-60
2022/09/25 11:51:06;;;;;;;;;;;;;;;20.14;51.05;101425.50;5068926;28;19932;-53
2022/09/25 11:53:51;;;;;;;;;;;;;;;20.16;50.70;101428.84;5065500;28;20390;-55
2022/09/25 11:56:38;;;;;;;;;;;;;;;20.20;50.70;101424.81;5065516;28;19930;-54
2022/09/25 11:59:41;;;;;;;;;;;;;;;20.23;50.99;101421.81;5065104;28;20565;-56
2022/09/25 12:02:09;;;;;;;;;;;;;;;20.27;50.70;101422.31;5043553;28;20444;-54
2022/09/25 12:04:54;;;;;;;;;;;;;;;20.29;50.65;101420.28;5043914;28;19959;-55
2022/09/25 12:07:38;;;;;;;;;;;;;;;20.31;50.82;101423.69;5043499;28;19913;-56
2022/09/25 12:10:06;;;;;;;;;;;;;;;20.32;50.74;101426.22;5027869;28;19913;-56
2022/09/25 12:12:31;;;;;;;;;;;;;;;20.32;50.73;101422.66;5043215;28;19927;-54
2022/09/25 12:15:13;;;;;;;;;;;;;;;20.33;50.65;101416.25;5043954;28;19964;-56
2022/09/25 12:17:44;;;;;;;;;;;;;;;20.34;50.77;101420.63;5057779;28;19915;-55
2022/09/25 12:20:15;;;;;;;;;;;;;;;20.36;50.51;101424.88;5046502;28;19909;-56
2022/09/25 12:22:59;;;;;;;;;;;;;;;20.38;50.71;101420.13;5062911;28;19909;-57
2022/09/25 12:25:31;;;;;;;;;;;;;;;20.41;50.31;101416.25;5063709;28;19916;-57
2022/09/25 12:28:00;;;;;;;;;;;;;;;20.43;50.31;101419.63;5063673;28;19909;-53
2022/09/25 12:30:32;;;;;;;;;;;;;;;20.43;50.48;101420.50;5045146;28;19908;-56
2022/09/25 12:33:13;;;;;;;;;;;;;;;20.43;50.58;101425.03;5045234;28;19909;-57
2022/09/25 12:35:41;;;;;;;;;;;;;;;20.40;50.32;101417.28;5065989;28;19908;-55
2022/09/25 12:38:18;;;;;;;;;;;;;;;20.38;50.52;101417.44;5065644;28;19915;-55
2022/09/25 12:40:54;;;;;;;;;;;;;;;20.37;50.56;101423.84;5064900;28;19917;-56
2022/09/25 12:43:32;;;;;;;;;;;;;;;20.36;50.46;101415.91;5065831;28;19913;-55
2022/09/25 12:46:00;;;;;;;;;;;;;;;20.34;50.54;101412.53;5066048;28;19908;-56
2022/09/25 12:48:33;;;;;;;;;;;;;;;20.34;50.38;101412.53;5065875;28;19908;-57
2022/09/25 12:51:02;;;;;;;;;;;;;;;20.34;50.33;101402.56;5097230;28;19963;-57
2022/09/25 12:53:32;;;;;;;;;;;;;;;20.36;50.59;101403.25;5065967;28;19908;-57
2022/09/25 12:55:59;;;;;;;;;;;;;;;20.35;50.21;101404.28;5064704;28;19909;-56
2022/09/25 12:58:30;;;;;;;;;;;;;;;20.36;50.32;101405.97;5062906;28;19966;-60
2022/09/25 13:01:01;;;;;;;;;;;;;;;20.36;50.47;101403.25;5055816;28;19996;-59
2022/09/25 13:03:31;;;;;;;;;;;;;;;20.37;50.45;101401.41;5059717;28;19913;-60
2022/09/25 13:06:26;;;;;;;;;;;;;;;20.36;50.46;101389.75;5059441;28;19952;-60
2022/09/25 13:08:53;;;;;;;;;;;;;;;20.38;50.81;101401.22;5052010;28;19913;-59